Login   Iscriviti    Portale ilVolo.it    Indice Forum    Aerofan.it PhotoGallery    Cerca    FAQ    Regolamento

Il meteo su Washington

AVIATION TOP 100 - www.avitop.com Avitop.com

Indice  »  Flight Crews Area  »  Meteo

 

 


Apri un nuovo argomento Rispondi all’argomento  [ 3 messaggi ] 
Autore Messaggio
 Oggetto del messaggio: METAR: QBB
 Messaggio Inviato: 03/08/2010, 12:48 
IT Support & Ops
IT Support & Ops
Avatar utente
Non connesso
Uomo
Iscritto il: 01/04/2008
Messaggi: 4101
Località: Winterthur (ZH)
Età: 47
Non mi ricordo cosa indica QBB (METAR presi da un report in area incidenti)...

UOII 021930Z 20002MPS 1500 SHRA BKN006 OVC015CB 15/13 Q0998 NOSIG RMK QBB180 QFE746 12 / / / / 55

:scratch:

_________________
Cordiali saluti/Best regards/Mit freundliche Grüßen,
andrea
Software Sorcery Specialist


Top 
 Profilo  
 
 Oggetto del messaggio: Re: METAR: QBB
 Messaggio Inviato: 03/08/2010, 19:18 
Community Member
Community Member
Avatar utente
Non connesso
Uomo
Iscritto il: 03/07/2009
Messaggi: 783
Località: Roma
Età: 46
AlphaPapa ha scritto:
Non mi ricordo cosa indica QBB (METAR presi da un report in area incidenti)...

UOII 021930Z 20002MPS 1500 SHRA BKN006 OVC015CB 15/13 Q0998 NOSIG RMK QBB180 QFE746 12 / / / / 55

:scratch:


Dovrebbe essere la quota delle nubi sull'aeroporto/stazione meteo.
Da qualche parte dice anche tipo e quota nubi, ma nell'esempio che hai postato credo ci sia solo la quota.

_________________
"L'inizio è la metà di tutto." - Platone


Top 
 Profilo  
 
 Oggetto del messaggio: Re: METAR: QBB
 Messaggio Inviato: 03/08/2010, 22:32 
IT Support & Ops
IT Support & Ops
Avatar utente
Non connesso
Uomo
Iscritto il: 01/04/2008
Messaggi: 4101
Località: Winterthur (ZH)
Età: 47
Si infatti.

Appena ho avuto tempo ho verificato; QBB in fonia chiede la consistenza e la base degli strati nuvolosi; nel remark in un METAR indica la base nubi rispetto al suolo (in particolare all'a/d).

_________________
Cordiali saluti/Best regards/Mit freundliche Grüßen,
andrea
Software Sorcery Specialist


Top 
 Profilo  
 
Visualizza ultimi messaggi:  Ordina per  
 
Apri un nuovo argomento Rispondi all’argomento  [ 3 messaggi ] 

Indice  »  Flight Crews Area  »  Meteo


 

Chi c’è in linea

Visitano il forum: Nessuno e 3 ospiti

 
 

 
Non puoi aprire nuovi argomenti
Non puoi rispondere negli argomenti
Non puoi modificare i tuoi messaggi
Non puoi cancellare i tuoi messaggi
Non puoi inviare allegati

Cerca per:
Vai a: